Time;durP1;ratioP1;P1;durP2;ratioP2;P2;SDS_P1;SDS_P2;PMS_P1;PMS_P2;Temp;Humidity;BMP_temperature;BMP_pressure;BME280_temperature;BME280_humidity;BME280_pressure;Samples;Min_cycle;Max_cycle;Signal;HPM_P1;HPM_P2
2023/03/21 00:00:10;;;;;;;21.80;12.27;;;9.60;99.90;;;;;;7901894;28;20196;-88
2023/03/21 00:03:55;;;;;;;22.27;11.67;;;9.60;99.90;;;;;;7910639;28;20540;-88
2023/03/21 00:07:41;;;;;;;22.97;12.87;;;9.60;99.90;;;;;;7898143;28;20172;-89
2023/03/21 00:11:27;;;;;;;21.03;12.33;;;9.60;99.90;;;;;;7892171;28;20232;-88
2023/03/21 00:15:12;;;;;;;17.40;11.37;;;9.60;99.90;;;;;;7908885;28;20682;-88
2023/03/21 00:18:58;;;;;;;18.17;11.73;;;9.60;99.90;;;;;;7905126;28;20268;-89
2023/03/21 00:22:43;;;;;;;17.03;10.37;;;9.60;99.90;;;;;;7897642;28;20189;-89
2023/03/21 00:26:30;;;;;;;17.17;10.63;;;9.60;99.90;;;;;;7900409;28;20224;-88
2023/03/21 00:30:16;;;;;;;23.03;11.40;;;9.60;99.90;;;;;;7904242;28;20316;-88
2023/03/21 00:34:02;;;;;;;17.67;11.20;;;9.60;99.90;;;;;;7902293;28;20257;-88
2023/03/21 00:37:47;;;;;;;15.67;10.20;;;9.50;99.90;;;;;;7886020;28;20230;-88
2023/03/21 00:41:33;;;;;;;15.40;9.83;;;9.70;99.90;;;;;;7898787;28;20169;-89
2023/03/21 00:45:20;;;;;;;17.20;9.73;;;9.80;99.90;;;;;;7923636;28;20706;-88
2023/03/21 00:49:06;;;;;;;19.23;10.73;;;9.90;99.90;;;;;;7927319;28;20596;-88
2023/03/21 00:52:51;;;;;;;19.83;10.50;;;9.80;99.90;;;;;;7903273;28;20329;-88
2023/03/21 00:56:38;;;;;;;18.93;10.03;;;9.90;99.90;;;;;;7909569;28;20188;-88
2023/03/21 01:00:24;;;;;;;21.63;11.37;;;10.00;99.90;;;;;;7910567;28;20252;-88
2023/03/21 01:04:13;;;;;;;20.17;11.07;;;9.90;99.90;;;;;;7923574;28;20666;-88
2023/03/21 01:07:58;;;;;;;20.47;11.57;;;10.00;99.90;;;;;;7908756;28;20184;-88
2023/03/21 01:11:45;;;;;;;19.93;11.80;;;10.00;99.90;;;;;;7898510;28;20222;-89
2023/03/21 01:15:30;;;;;;;25.43;13.17;;;10.00;99.90;;;;;;7904008;28;20195;-88
2023/03/21 01:19:19;;;;;;;22.73;13.03;;;10.00;99.90;;;;;;7908229;28;20187;-88
2023/03/21 01:23:04;;;;;;;25.00;14.13;;;10.00;99.90;;;;;;7906810;28;20681;-88
2023/03/21 01:26:50;;;;;;;24.50;14.83;;;10.00;99.90;;;;;;7907264;28;20223;-88
2023/03/21 01:30:36;;;;;;;25.93;15.20;;;10.00;99.90;;;;;;7886896;28;20292;-88
2023/03/21 01:34:22;;;;;;;26.00;15.60;;;10.00;99.90;;;;;;7908505;28;20203;-88
2023/03/21 01:38:08;;;;;;;30.20;17.63;;;9.90;99.90;;;;;;7899290;28;20207;-88
2023/03/21 01:41:54;;;;;;;31.33;17.40;;;9.80;99.90;;;;;;7924882;28;20185;-88
2023/03/21 01:46:11;;;;;;;30.83;17.43;;;9.70;99.90;;;;;;7896554;28;20212;-89
2023/03/21 01:50:02;;;;;;;28.20;17.40;;;9.70;99.90;;;;;;7903525;28;20211;-88
2023/03/21 01:53:48;;;;;;;26.50;16.53;;;9.70;99.90;;;;;;7898402;28;20236;-89
2023/03/21 01:57:41;;;;;;;31.90;16.83;;;9.80;99.90;;;;;;7900297;28;20185;-88
2023/03/21 02:01:27;;;;;;;27.93;16.80;;;9.80;99.90;;;;;;7902615;28;20192;-88
2023/03/21 02:05:13;;;;;;;28.30;17.27;;;9.80;99.90;;;;;;7904258;28;20704;-89
2023/03/21 02:09:03;;;;;;;29.27;16.73;;;9.80;99.90;;;;;;7903670;28;20530;-88
2023/03/21 02:12:49;;;;;;;28.10;17.63;;;9.80;99.90;;;;;;7906855;28;20262;-89
2023/03/21 02:17:08;;;;;;;30.03;17.37;;;9.80;99.90;;;;;;7887824;28;20690;-88
2023/03/21 02:21:16;;;;;;;31.43;17.53;;;9.70;99.90;;;;;;7877111;28;20201;-88
2023/03/21 02:25:35;;;;;;;29.87;17.13;;;9.70;99.90;;;;;;7904515;28;20741;-88
2023/03/21 02:29:38;;;;;;;32.00;17.50;;;9.70;99.90;;;;;;7920573;28;20211;-89
2023/03/21 02:33:38;;;;;;;28.37;18.07;;;9.70;99.90;;;;;;7926130;28;20204;-87
2023/03/21 02:37:53;;;;;;;29.10;17.77;;;9.70;99.90;;;;;;7894159;28;20173;-88
2023/03/21 02:41:54;;;;;;;29.80;18.37;;;9.70;99.90;;;;;;7892426;28;20222;-88
2023/03/21 02:45:43;;;;;;;29.07;18.47;;;9.70;99.90;;;;;;7912209;28;20204;-88
2023/03/21 02:49:41;;;;;;;31.47;19.13;;;9.70;99.90;;;;;;7910939;28;20768;-88
2023/03/21 02:53:37;;;;;;;29.17;18.47;;;9.60;99.90;;;;;;7909513;28;20231;-88
2023/03/21 02:57:23;;;;;;;33.90;20.60;;;9.60;99.90;;;;;;7880555;28;20213;-88
2023/03/21 03:01:09;;;;;;;33.50;19.43;;;9.60;99.90;;;;;;7906834;28;20199;-88
2023/03/21 03:04:55;;;;;;;36.27;20.80;;;9.50;99.90;;;;;;7912150;28;20334;-88
2023/03/21 03:09:05;;;;;;;36.37;21.43;;;9.60;99.90;;;;;;7906037;28;20181;-88
2023/03/21 03:13:12;;;;;;;35.37;20.10;;;9.60;99.90;;;;;;7894710;28;20193;-88
2023/03/21 03:17:19;;;;;;;37.47;21.20;;;9.60;99.90;;;;;;7880284;28;20173;-88
2023/03/21 03:21:28;;;;;;;30.40;19.47;;;9.50;99.90;;;;;;7892821;28;20189;-88
2023/03/21 03:25:35;;;;;;;30.80;19.57;;;9.50;99.90;;;;;;7893714;28;20253;-89
2023/03/21 03:29:23;;;;;;;34.53;19.03;;;9.50;99.90;;;;;;7911495;28;20283;-88
2023/03/21 03:33:10;;;;;;;32.03;18.47;;;9.40;99.90;;;;;;7906642;28;20181;-88
2023/03/21 03:36:58;;;;;;;30.07;18.23;;;9.40;99.90;;;;;;7909149;28;20600;-88
2023/03/21 03:40:51;;;;;;;33.37;18.33;;;9.40;99.90;;;;;;7910431;28;20234;-88
2023/03/21 03:44:38;;;;;;;32.33;17.57;;;9.40;99.90;;;;;;7912685;28;20200;-88
2023/03/21 03:48:28;;;;;;;31.97;18.77;;;9.40;99.90;;;;;;7907333;28;20583;-88
2023/03/21 03:52:30;;;;;;;31.23;19.67;;;9.40;99.90;;;;;;7908427;28;20455;-89
2023/03/21 03:56:16;;;;;;;33.00;19.37;;;9.40;99.90;;;;;;7903555;28;20260;-88
2023/03/21 04:00:05;;;;;;;36.57;19.93;;;9.40;99.90;;;;;;7911220;28;20172;-88
2023/03/21 04:03:50;;;;;;;33.20;20.27;;;9.30;99.90;;;;;;7910699;28;20624;-88
2023/03/21 04:07:36;;;;;;;31.87;19.83;;;9.30;99.90;;;;;;7889785;28;20177;-89
2023/03/21 04:11:22;;;;;;;33.47;20.47;;;9.30;99.90;;;;;;7909564;28;20207;-88
2023/03/21 04:15:09;;;;;;;34.80;19.83;;;9.30;99.90;;;;;;7906877;28;20231;-88
2023/03/21 04:18:54;;;;;;;31.67;18.83;;;9.30;99.90;;;;;;7925110;28;20161;-89
2023/03/21 04:22:40;;;;;;;37.60;19.90;;;9.30;99.90;;;;;;7915922;28;20197;-88
2023/03/21 04:26:31;;;;;;;36.07;20.83;;;9.20;99.90;;;;;;7896033;28;20220;-88
2023/03/21 04:30:18;;;;;;;37.07;20.27;;;9.20;99.90;;;;;;7896317;28;20213;-88
2023/03/21 04:34:08;;;;;;;34.33;20.73;;;9.10;99.90;;;;;;7897113;28;20243;-89
2023/03/21 04:37:55;;;;;;;37.63;21.47;;;9.10;99.90;;;;;;7888497;28;20292;-88
2023/03/21 04:41:43;;;;;;;44.20;21.67;;;9.20;99.90;;;;;;7900647;28;20207;-88
2023/03/21 04:45:29;;;;;;;37.27;22.23;;;9.10;99.90;;;;;;7900403;28;20670;-89
2023/03/21 04:49:15;;;;;;;33.47;20.67;;;9.20;99.90;;;;;;7894879;28;20205;-89
2023/03/21 04:53:01;;;;;;;35.10;21.47;;;9.20;99.90;;;;;;7894653;28;20793;-89
2023/03/21 04:56:46;;;;;;;41.57;22.67;;;9.10;99.90;;;;;;7896483;28;20180;-88
2023/03/21 05:00:36;;;;;;;38.37;21.60;;;9.10;99.90;;;;;;7886298;28;20259;-88
2023/03/21 05:04:21;;;;;;;35.87;21.93;;;9.10;99.90;;;;;;7894237;28;20227;-89
2023/03/21 05:08:07;;;;;;;37.87;21.73;;;9.20;99.90;;;;;;7893727;28;20234;-88
2023/03/21 05:11:53;;;;;;;38.00;22.03;;;9.10;99.90;;;;;;7886148;28;20211;-88
2023/03/21 05:15:38;;;;;;;40.13;21.80;;;9.10;99.90;;;;;;7876117;28;20216;-89
2023/03/21 05:19:33;;;;;;;39.03;22.73;;;9.10;99.90;;;;;;7877010;28;20267;-90
2023/03/21 05:23:20;;;;;;;40.97;24.27;;;9.10;99.90;;;;;;7891636;28;20214;-87
2023/03/21 05:27:06;;;;;;;41.40;21.70;;;8.90;99.90;;;;;;7899281;28;20176;-89
2023/03/21 05:30:51;;;;;;;37.80;22.50;;;8.80;99.90;;;;;;7900263;28;20208;-89
2023/03/21 05:34:37;;;;;;;40.70;23.53;;;8.90;99.90;;;;;;7893210;28;20205;-89
2023/03/21 05:38:28;;;;;;;45.00;24.83;;;8.90;99.90;;;;;;7889915;28;20173;-88
2023/03/21 05:42:13;;;;;;;40.67;23.77;;;8.90;99.90;;;;;;7898417;28;20184;-88
2023/03/21 05:45:59;;;;;;;44.47;24.03;;;8.80;99.90;;;;;;7901081;28;20192;-88
2023/03/21 05:49:46;;;;;;;36.30;22.20;;;8.80;99.90;;;;;;7899071;28;20254;-88
2023/03/21 05:53:32;;;;;;;33.50;20.03;;;8.70;99.90;;;;;;7889129;28;20189;-88
2023/03/21 05:57:18;;;;;;;34.30;19.93;;;8.60;99.90;;;;;;7896078;28;20184;-87
2023/03/21 06:01:04;;;;;;;30.70;19.17;;;8.60;99.90;;;;;;7894313;28;20187;-89
2023/03/21 06:04:49;;;;;;;31.37;19.43;;;8.60;99.90;;;;;;7898717;28;20661;-89
2023/03/21 06:08:35;;;;;;;32.87;19.47;;;8.60;99.90;;;;;;7906623;28;20288;-87
2023/03/21 06:12:21;;;;;;;32.97;18.73;;;8.70;99.90;;;;;;7906390;28;20200;-87
2023/03/21 06:16:07;;;;;;;30.37;17.13;;;8.50;99.90;;;;;;7893769;28;20243;-89
2023/03/21 06:19:52;;;;;;;31.57;17.80;;;8.50;99.90;;;;;;7884444;28;20199;-89
2023/03/21 06:23:38;;;;;;;29.17;17.47;;;8.40;99.90;;;;;;7892176;28;20231;-88
2023/03/21 06:27:24;;;;;;;29.07;16.50;;;8.50;99.90;;;;;;7889180;28;20184;-88
2023/03/21 06:31:10;;;;;;;29.57;15.83;;;8.50;99.90;;;;;;7886746;28;20228;-88
2023/03/21 06:34:55;;;;;;;26.20;15.77;;;8.50;99.90;;;;;;7866751;28;20197;-88
2023/03/21 06:38:41;;;;;;;24.60;15.63;;;8.50;99.90;;;;;;7877066;28;20172;-89
2023/03/21 06:42:28;;;;;;;25.83;15.30;;;8.50;99.90;;;;;;7899580;28;20251;-89
2023/03/21 06:46:14;;;;;;;23.10;13.13;;;8.50;99.90;;;;;;7898258;28;20281;-88
2023/03/21 06:50:00;;;;;;;21.80;12.93;;;8.30;99.90;;;;;;7899803;28;20670;-89
2023/03/21 06:53:50;;;;;;;22.57;12.63;;;8.30;99.90;;;;;;7898863;28;20728;-89
2023/03/21 06:57:36;;;;;;;21.77;12.67;;;8.30;99.90;;;;;;7887154;28;20288;-88
2023/03/21 07:01:22;;;;;;;22.67;12.17;;;8.30;99.90;;;;;;7896039;28;20263;-88
2023/03/21 07:05:09;;;;;;;21.90;11.47;;;8.30;99.90;;;;;;7895345;28;20674;-88
2023/03/21 07:08:55;;;;;;;20.70;11.00;;;8.20;99.90;;;;;;7914576;28;20619;-88
2023/03/21 07:12:46;;;;;;;21.63;11.60;;;8.10;99.90;;;;;;7900149;28;20169;-88
2023/03/21 07:16:32;;;;;;;18.80;10.53;;;8.00;99.90;;;;;;7900296;28;20192;-88
2023/03/21 07:20:20;;;;;;;22.23;11.10;;;8.00;99.90;;;;;;7902774;28;20192;-88
2023/03/21 07:24:06;;;;;;;22.93;11.60;;;8.00;99.90;;;;;;7888643;28;20200;-88
2023/03/21 07:27:56;;;;;;;19.47;11.13;;;8.10;99.90;;;;;;7898133;28;20188;-88
2023/03/21 07:31:43;;;;;;;22.37;11.80;;;8.10;99.90;;;;;;7884888;28;20204;-88
2023/03/21 07:35:31;;;;;;;22.40;11.27;;;8.20;99.90;;;;;;7879944;28;20213;-88
2023/03/21 07:39:22;;;;;;;20.53;10.33;;;8.20;99.90;;;;;;7903174;28;20204;-89
2023/03/21 07:43:09;;;;;;;18.23;9.83;;;8.30;99.90;;;;;;7903907;28;20541;-88
2023/03/21 07:46:55;;;;;;;16.47;9.50;;;8.30;99.90;;;;;;7896061;28;20196;-89
2023/03/21 07:50:41;;;;;;;17.40;8.57;;;8.40;99.90;;;;;;7920622;28;20196;-88
2023/03/21 07:54:28;;;;;;;18.23;9.47;;;8.30;99.90;;;;;;7920613;28;20199;-89
2023/03/21 07:58:14;;;;;;;16.80;8.83;;;8.30;99.90;;;;;;7926419;28;20269;-89
2023/03/21 08:01:59;;;;;;;19.07;8.73;;;8.30;99.90;;;;;;7900589;28;20229;-89
2023/03/21 08:05:45;;;;;;;14.47;8.77;;;8.30;99.90;;;;;;7884888;28;20210;-88
2023/03/21 08:09:31;;;;;;;13.30;8.63;;;8.30;99.90;;;;;;7883689;28;20213;-89
2023/03/21 08:13:17;;;;;;;15.70;8.83;;;8.30;99.90;;;;;;7891660;28;20296;-88
2023/03/21 08:17:04;;;;;;;14.43;8.40;;;8.30;99.90;;;;;;7900413;28;20192;-87
2023/03/21 08:20:55;;;;;;;16.30;8.97;;;8.30;99.90;;;;;;7901624;28;20280;-88
2023/03/21 08:24:40;;;;;;;15.10;8.83;;;8.30;99.90;;;;;;7900761;28;20208;-89
2023/03/21 08:28:29;;;;;;;15.67;9.00;;;8.30;99.90;;;;;;7919475;28;20692;-88
2023/03/21 08:32:18;;;;;;;14.20;8.67;;;8.40;99.90;;;;;;7912201;28;20205;-88
2023/03/21 08:36:04;;;;;;;15.77;9.20;;;8.40;99.90;;;;;;7890068;28;20306;-90
2023/03/21 08:39:50;;;;;;;14.13;9.13;;;8.40;99.90;;;;;;7902915;28;20176;-89
2023/03/21 08:43:36;;;;;;;15.53;8.70;;;8.50;99.90;;;;;;7889735;28;20235;-88
2023/03/21 08:47:21;;;;;;;16.93;9.30;;;8.50;99.90;;;;;;7901763;28;20188;-89
2023/03/21 08:51:07;;;;;;;15.70;8.83;;;8.50;99.90;;;;;;7902875;28;20192;-88
2023/03/21 08:54:54;;;;;;;13.53;8.63;;;8.50;99.90;;;;;;7918561;28;20207;-89
2023/03/21 08:58:40;;;;;;;14.77;9.03;;;8.60;99.90;;;;;;7901082;28;20188;-88
2023/03/21 09:02:26;;;;;;;17.67;9.47;;;8.50;99.90;;;;;;7917154;28;20185;-89
2023/03/21 09:06:13;;;;;;;15.83;9.83;;;8.60;99.90;;;;;;7895663;28;20257;-88
2023/03/21 09:09:59;;;;;;;16.87;9.13;;;8.70;99.90;;;;;;7902168;28;20788;-89
2023/03/21 09:13:44;;;;;;;17.10;9.40;;;8.70;99.90;;;;;;7918288;28;20200;-88
2023/03/21 09:17:31;;;;;;;18.90;10.60;;;8.70;99.90;;;;;;7900399;28;20192;-89
2023/03/21 09:21:19;;;;;;;19.57;9.67;;;8.70;99.90;;;;;;7901240;28;20181;-89
2023/03/21 09:25:07;;;;;;;18.80;10.57;;;8.70;99.90;;;;;;7918077;28;20197;-88
2023/03/21 09:28:54;;;;;;;15.23;9.93;;;8.80;99.90;;;;;;7871661;28;20174;-89
2023/03/21 09:32:40;;;;;;;16.57;9.13;;;8.90;99.90;;;;;;7871088;28;20633;-89
2023/03/21 09:36:26;;;;;;;23.77;15.03;;;9.00;99.90;;;;;;7883618;28;20245;-89
2023/03/21 09:40:18;;;;;;;17.10;9.90;;;9.10;99.90;;;;;;7888896;28;20184;-89
2023/03/21 09:44:18;;;;;;;17.10;9.47;;;9.20;99.90;;;;;;7901714;28;20203;-89
2023/03/21 09:48:12;;;;;;;16.20;9.40;;;9.20;99.90;;;;;;7934862;28;20195;-89
2023/03/21 09:52:02;;;;;;;17.10;10.03;;;9.30;99.90;;;;;;7893773;28;20262;-89
2023/03/21 09:55:48;;;;;;;16.67;9.17;;;9.40;99.90;;;;;;7902698;28;20196;-89
2023/03/21 09:59:38;;;;;;;21.33;11.17;;;9.50;99.90;;;;;;7916753;28;20185;-89
2023/03/21 10:03:30;;;;;;;16.80;9.20;;;9.40;99.90;;;;;;7884391;28;20214;-89
2023/03/21 10:07:18;;;;;;;17.43;8.87;;;9.50;99.90;;;;;;7899742;28;20188;-89
2023/03/21 10:11:12;;;;;;;16.93;9.77;;;9.50;99.90;;;;;;7910433;28;20296;-89
2023/03/21 10:15:01;;;;;;;17.47;9.67;;;9.60;99.90;;;;;;7909579;28;20220;-89
2023/03/21 10:18:48;;;;;;;15.23;9.30;;;9.60;99.90;;;;;;7898828;28;20185;-89
2023/03/21 10:22:34;;;;;;;15.30;8.90;;;9.70;99.90;;;;;;7882533;28;20213;-89
2023/03/21 10:26:25;;;;;;;18.93;10.90;;;9.70;99.90;;;;;;7885221;28;20212;-89
2023/03/21 10:30:23;;;;;;;13.07;8.93;;;9.80;99.90;;;;;;7899217;28;20200;-89
2023/03/21 10:34:17;;;;;;;13.87;9.03;;;10.00;99.90;;;;;;7913166;28;20200;-89
2023/03/21 10:38:05;;;;;;;13.97;8.40;;;10.00;99.90;;;;;;7915102;28;20176;-89
2023/03/21 10:41:50;;;;;;;12.13;8.40;;;10.10;99.90;;;;;;7916278;28;20270;-89
2023/03/21 10:45:36;;;;;;;11.27;8.20;;;10.20;99.90;;;;;;7890195;28;20254;-89
2023/03/21 10:49:24;;;;;;;14.67;7.90;;;10.30;99.90;;;;;;7914376;28;20203;-89
2023/03/21 10:53:35;;;;;;;11.67;7.47;;;10.40;99.90;;;;;;7870999;28;20191;-89
2023/03/21 10:57:22;;;;;;;14.20;11.10;;;10.50;99.90;;;;;;7891257;28;20232;-89
2023/03/21 11:01:13;;;;;;;12.03;8.70;;;10.50;99.90;;;;;;7887752;28;20178;-88
2023/03/21 11:05:17;;;;;;;10.87;7.37;;;10.60;99.90;;;;;;7882145;28;20200;-89
2023/03/21 11:09:15;;;;;;;14.03;6.97;;;10.70;99.90;;;;;;7892517;28;20202;-89
2023/03/21 11:13:05;;;;;;;10.47;6.23;;;10.80;99.90;;;;;;7888436;28;20188;-92
2023/03/21 11:16:51;;;;;;;11.70;6.00;;;10.80;99.90;;;;;;7883996;28;20268;-89
2023/03/21 11:20:56;;;;;;;9.43;6.37;;;10.80;99.90;;;;;;7874878;28;20246;-88
2023/03/21 11:24:47;;;;;;;9.13;6.00;;;10.70;99.90;;;;;;7873675;28;20281;-88
2023/03/21 11:28:38;;;;;;;111.80;92.53;;;10.80;99.90;;;;;;7887306;28;20187;-89
2023/03/21 11:32:36;;;;;;;16.57;13.00;;;10.90;99.90;;;;;;7894129;28;20219;-89
2023/03/21 11:36:21;;;;;;;10.60;7.33;;;11.00;99.90;;;;;;7930994;28;20204;-89
2023/03/21 11:40:22;;;;;;;9.93;6.70;;;11.10;99.90;;;;;;7929687;28;20180;-89
2023/03/21 11:44:28;;;;;;;7.77;6.07;;;11.20;99.90;;;;;;7904276;28;20236;-89
2023/03/21 11:48:14;;;;;;;7.70;5.33;;;11.30;99.90;;;;;;7897295;28;20176;-89
2023/03/21 11:52:40;;;;;;;11.90;5.83;;;11.40;99.90;;;;;;7899535;28;20205;-89
2023/03/21 11:56:39;;;;;;;7.73;5.63;;;11.50;99.90;;;;;;7888938;28;20697;-89
2023/03/21 12:00:53;;;;;;;7.87;5.47;;;11.50;99.90;;;;;;7892549;28;20203;-89
2023/03/21 12:05:04;;;;;;;7.00;5.10;;;11.50;99.90;;;;;;7918066;27;20205;-89
2023/03/21 12:09:11;;;;;;;6.50;5.00;;;11.60;99.90;;;;;;7895711;28;20173;-89
2023/03/21 12:13:12;;;;;;;8.87;5.77;;;11.70;99.90;;;;;;7901451;28;20179;-89
2023/03/21 12:17:21;;;;;;;6.83;5.37;;;11.70;99.90;;;;;;7902357;28;20258;-89
2023/03/21 12:21:22;;;;;;;9.23;5.37;;;11.80;99.90;;;;;;7896117;28;20188;-88
2023/03/21 12:25:18;;;;;;;7.17;4.80;;;11.80;99.90;;;;;;7902653;28;20767;-88
2023/03/21 12:29:22;;;;;;;6.73;4.70;;;11.90;99.90;;;;;;7915919;28;20184;-89
2023/03/21 12:33:26;;;;;;;8.60;5.10;;;12.00;99.90;;;;;;7908492;28;20184;-88
2023/03/21 12:37:51;;;;;;;10.50;5.60;;;11.90;99.90;;;;;;7900727;28;20181;-88
2023/03/21 12:41:54;;;;;;;7.07;4.50;;;12.00;99.90;;;;;;7879120;28;20211;-88
2023/03/21 12:45:43;;;;;;;6.40;4.73;;;12.00;99.90;;;;;;7895940;28;20203;-88
2023/03/21 12:49:38;;;;;;;5.47;4.47;;;12.00;99.90;;;;;;7918513;28;20829;-89
2023/03/21 12:54:02;;;;;;;8.30;5.43;;;12.10;99.90;;;;;;7917044;28;20582;-88
2023/03/21 12:57:53;;;;;;;8.53;4.90;;;12.10;99.90;;;;;;7900990;28;20180;-88
2023/03/21 13:01:41;;;;;;;6.83;5.33;;;12.20;99.90;;;;;;7903477;28;20180;-89
2023/03/21 13:05:39;;;;;;;8.30;4.73;;;12.30;99.90;;;;;;7893875;28;20728;-89
2023/03/21 13:09:42;;;;;;;6.70;4.17;;;12.40;99.90;;;;;;7916754;27;20212;-89
2023/03/21 13:13:48;;;;;;;7.33;4.20;;;12.40;99.90;;;;;;7886394;28;20208;-89
2023/03/21 13:17:44;;;;;;;6.57;3.87;;;12.40;99.90;;;;;;7887368;28;20688;-88
2023/03/21 13:21:49;;;;;;;5.57;4.37;;;12.40;99.90;;;;;;7901431;28;20208;-90
2023/03/21 13:25:56;;;;;;;4.97;3.60;;;12.40;99.90;;;;;;7929031;28;20288;-89
2023/03/21 13:29:46;;;;;;;6.80;4.97;;;12.40;99.90;;;;;;7878111;28;20215;-88
2023/03/21 13:33:33;;;;;;;8.33;5.23;;;12.40;99.90;;;;;;7913691;28;20291;-88
2023/03/21 13:37:20;;;;;;;6.93;4.83;;;12.50;99.90;;;;;;7916991;28;20255;-89
2023/03/21 13:41:07;;;;;;;6.93;4.50;;;12.60;99.90;;;;;;7900217;28;20604;-88
2023/03/21 13:44:58;;;;;;;5.60;4.60;;;12.60;99.90;;;;;;7899939;28;20238;-88
2023/03/21 13:48:52;;;;;;;8.10;4.53;;;12.60;99.90;;;;;;7911223;28;20185;-89
2023/03/21 13:52:39;;;;;;;6.37;4.73;;;12.60;99.90;;;;;;7886725;28;20228;-87
2023/03/21 13:56:25;;;;;;;6.00;4.57;;;12.60;99.90;;;;;;7874811;28;20205;-88
2023/03/21 14:00:17;;;;;;;7.40;4.10;;;12.70;99.90;;;;;;7877854;28;20748;-89
2023/03/21 14:04:14;;;;;;;6.37;4.20;;;12.70;99.90;;;;;;7899259;28;20228;-89
2023/03/21 14:08:05;;;;;;;5.70;4.40;;;12.90;99.90;;;;;;7916841;28;20180;-88
2023/03/21 14:11:52;;;;;;;5.67;4.00;;;12.90;99.90;;;;;;7882251;28;20208;-88
2023/03/21 14:15:51;;;;;;;3.93;3.40;;;12.90;99.90;;;;;;7901582;28;20188;-88
2023/03/21 14:19:37;;;;;;;7.00;4.00;;;12.90;99.90;;;;;;7875681;28;20727;-88
2023/03/21 14:23:26;;;;;;;4.67;3.80;;;13.00;99.90;;;;;;7913008;28;20223;-88
2023/03/21 14:27:12;;;;;;;7.07;4.27;;;12.90;99.90;;;;;;7872502;28;20655;-89
2023/03/21 14:30:59;;;;;;;5.20;3.67;;;13.00;99.90;;;;;;7879281;28;20197;-88
2023/03/21 14:34:47;;;;;;;4.80;3.60;;;13.00;99.90;;;;;;7900897;28;20196;-88
2023/03/21 14:38:38;;;;;;;4.90;3.93;;;13.10;99.90;;;;;;7902271;28;20593;-88
2023/03/21 14:42:34;;;;;;;6.07;3.80;;;13.10;99.90;;;;;;7899542;28;20183;-88
2023/03/21 14:46:20;;;;;;;5.53;3.50;;;13.10;99.90;;;;;;7899153;28;20208;-89
2023/03/21 14:50:09;;;;;;;3.77;3.40;;;13.10;99.90;;;;;;7914631;28;20330;-90
2023/03/21 14:53:56;;;;;;;3.87;3.47;;;13.10;99.90;;;;;;7902148;28;20238;-90
2023/03/21 14:57:51;;;;;;;6.43;3.60;;;13.10;99.90;;;;;;7891070;28;20209;-89
2023/03/21 15:01:38;;;;;;;6.83;3.77;;;13.10;99.90;;;;;;7892688;28;20550;-89
2023/03/21 15:05:30;;;;;;;4.97;3.83;;;13.10;99.90;;;;;;7914869;28;20201;-88
2023/03/21 15:09:18;;;;;;;6.03;4.47;;;13.00;99.90;;;;;;7940708;28;20260;-89
2023/03/21 15:13:15;;;;;;;5.20;4.50;;;13.00;99.90;;;;;;7904496;28;20195;-87
2023/03/21 15:17:03;;;;;;;6.43;4.20;;;12.90;99.90;;;;;;7905700;28;20325;-88
2023/03/21 15:20:50;;;;;;;5.47;4.33;;;12.90;99.90;;;;;;7897273;28;20591;-88
2023/03/21 15:24:43;;;;;;;4.90;4.40;;;12.90;99.90;;;;;;7920391;28;20197;-89
2023/03/21 15:28:30;;;;;;;6.37;4.30;;;12.80;99.90;;;;;;7903905;28;20570;-88
2023/03/21 15:32:21;;;;;;;7.00;4.50;;;12.80;99.90;;;;;;7904417;28;20210;-88
2023/03/21 15:36:08;;;;;;;5.67;4.00;;;12.80;99.90;;;;;;7922024;28;20188;-88
2023/03/21 15:40:08;;;;;;;5.33;3.90;;;12.80;99.90;;;;;;7920385;28;20188;-87
2023/03/21 15:44:00;;;;;;;6.70;3.73;;;12.90;99.90;;;;;;7908167;28;20209;-88
2023/03/21 15:47:54;;;;;;;4.80;3.73;;;12.80;99.90;;;;;;7920422;28;20185;-88
2023/03/21 15:51:42;;;;;;;5.13;4.03;;;12.90;99.90;;;;;;7918418;28;20342;-88
2023/03/21 15:55:35;;;;;;;5.70;4.40;;;13.00;99.90;;;;;;7904241;28;20199;-89
2023/03/21 15:59:25;;;;;;;5.63;3.80;;;13.00;99.90;;;;;;7904728;28;20189;-88
2023/03/21 16:03:21;;;;;;;5.17;3.90;;;13.00;99.90;;;;;;7901694;28;20188;-87
2023/03/21 16:07:15;;;;;;;6.10;4.47;;;13.00;99.90;;;;;;7903133;28;20184;-89
2023/03/21 16:11:18;;;;;;;5.30;4.30;;;13.00;99.90;;;;;;7901941;28;20860;-88
2023/03/21 16:15:04;;;;;;;7.80;4.60;;;13.10;99.90;;;;;;7884142;28;20610;-88
2023/03/21 16:18:50;;;;;;;4.67;4.13;;;13.10;99.90;;;;;;7902974;28;20537;-89
2023/03/21 16:22:36;;;;;;;6.10;4.00;;;13.10;99.90;;;;;;7919675;28;20269;-88
2023/03/21 16:26:30;;;;;;;5.13;3.87;;;13.00;99.90;;;;;;7918709;28;20209;-89
2023/03/21 16:30:18;;;;;;;4.37;3.73;;;13.10;99.90;;;;;;7903984;28;20259;-88
2023/03/21 16:34:04;;;;;;;3.97;3.57;;;13.10;99.90;;;;;;7919467;28;20678;-89
2023/03/21 16:37:50;;;;;;;4.73;3.60;;;13.10;99.90;;;;;;7903768;28;20191;-89
2023/03/21 16:41:37;;;;;;;5.00;3.33;;;13.00;99.90;;;;;;7896772;28;20665;-88
2023/03/21 16:45:22;;;;;;;4.70;3.37;;;13.00;99.90;;;;;;7919210;28;20215;-88
2023/03/21 16:49:26;;;;;;;6.67;3.77;;;13.00;99.90;;;;;;7901956;28;20172;-89
2023/03/21 16:53:11;;;;;;;5.90;3.87;;;13.00;99.90;;;;;;7903751;28;20310;-88
2023/03/21 16:56:58;;;;;;;4.50;3.70;;;13.00;99.90;;;;;;7919974;28;20176;-90
2023/03/21 17:00:44;;;;;;;5.77;3.67;;;13.00;99.90;;;;;;7879973;28;20568;-88
2023/03/21 17:04:30;;;;;;;5.97;3.73;;;13.00;99.90;;;;;;7918111;28;20197;-89
2023/03/21 17:08:18;;;;;;;6.90;4.67;;;12.90;99.90;;;;;;7890933;28;20184;-88
2023/03/21 17:12:09;;;;;;;6.23;3.43;;;12.90;99.90;;;;;;7918405;28;20204;-88
2023/03/21 17:15:54;;;;;;;3.30;3.00;;;12.80;99.90;;;;;;7895989;28;20208;-88
2023/03/21 17:19:41;;;;;;;7.17;3.30;;;12.80;99.90;;;;;;7920076;27;20188;-88
2023/03/21 17:23:27;;;;;;;3.47;2.90;;;12.80;99.90;;;;;;7896004;28;20201;-89
2023/03/21 17:27:14;;;;;;;3.77;3.00;;;12.80;99.90;;;;;;7891964;28;20188;-89
2023/03/21 17:30:59;;;;;;;3.87;2.90;;;12.80;99.90;;;;;;7900321;28;20197;-88
2023/03/21 17:34:51;;;;;;;3.20;2.77;;;12.70;99.90;;;;;;7901059;28;20203;-88
2023/03/21 17:38:37;;;;;;;3.93;3.00;;;12.70;99.90;;;;;;7917880;28;20685;-87
2023/03/21 17:42:23;;;;;;;3.27;2.97;;;12.70;99.90;;;;;;7914705;28;20666;-88
2023/03/21 17:46:18;;;;;;;3.73;3.33;;;12.60;99.90;;;;;;7900468;28;20230;-88
2023/03/21 17:50:05;;;;;;;5.97;3.60;;;12.60;99.90;;;;;;7878196;28;20283;-89
2023/03/21 17:53:51;;;;;;;7.50;3.17;;;12.60;99.90;;;;;;7895608;28;20282;-87
2023/03/21 17:57:36;;;;;;;3.97;2.93;;;12.60;99.90;;;;;;7895858;28;20184;-89
2023/03/21 18:01:22;;;;;;;5.13;3.53;;;12.50;99.90;;;;;;7901318;28;20191;-89
2023/03/21 18:05:17;;;;;;;8.40;3.27;;;12.50;99.90;;;;;;7909295;28;20211;-92
2023/03/21 18:09:09;;;;;;;4.07;3.53;;;12.50;99.90;;;;;;7888763;28;20186;-89
2023/03/21 18:12:55;;;;;;;6.83;3.90;;;12.50;99.90;;;;;;7881986;28;20214;-88
2023/03/21 18:16:41;;;;;;;5.23;3.43;;;12.40;99.90;;;;;;7893977;28;20183;-88
2023/03/21 18:20:27;;;;;;;5.83;3.57;;;12.40;99.90;;;;;;7904248;28;20242;-88
2023/03/21 18:24:13;;;;;;;9.53;3.93;;;12.40;99.90;;;;;;7889669;28;20286;-88
2023/03/21 18:28:00;;;;;;;5.57;3.50;;;12.30;99.90;;;;;;7889144;28;20321;-88
2023/03/21 18:31:45;;;;;;;5.17;3.80;;;12.30;99.90;;;;;;7906045;28;20292;-88
2023/03/21 18:35:31;;;;;;;6.10;3.83;;;12.30;99.90;;;;;;7888870;28;20217;-88
2023/03/21 18:39:17;;;;;;;6.73;3.80;;;12.20;99.90;;;;;;7912339;28;20618;-89
2023/03/21 18:43:35;;;;;;;4.67;3.33;;;12.20;99.90;;;;;;7911872;28;20177;-89
2023/03/21 18:47:21;;;;;;;5.17;4.10;;;12.20;99.90;;;;;;7908444;28;20196;-88
2023/03/21 18:51:08;;;;;;;5.77;4.00;;;12.10;99.90;;;;;;7879624;28;20204;-88
2023/03/21 18:54:54;;;;;;;6.57;3.80;;;12.10;99.90;;;;;;7892665;28;20201;-89
2023/03/21 18:58:52;;;;;;;6.37;4.63;;;12.10;99.90;;;;;;7879473;28;20180;-88
2023/03/21 19:02:42;;;;;;;7.80;4.63;;;12.10;99.90;;;;;;7907275;28;20182;-88
2023/03/21 19:06:28;;;;;;;6.97;5.03;;;12.10;99.90;;;;;;7886798;28;20755;-88
2023/03/21 19:10:16;;;;;;;7.20;4.53;;;12.10;99.90;;;;;;7891689;28;20566;-88
2023/03/21 19:14:02;;;;;;;9.27;4.93;;;12.00;99.90;;;;;;7869035;28;20209;-88
2023/03/21 19:17:51;;;;;;;7.20;4.63;;;12.00;99.90;;;;;;7887883;28;20192;-88
2023/03/21 19:21:39;;;;;;;5.27;4.53;;;12.00;99.90;;;;;;7911344;28;20188;-88
2023/03/21 19:25:25;;;;;;;5.93;4.53;;;12.00;99.90;;;;;;7898952;28;20205;-88
2023/03/21 19:29:14;;;;;;;8.50;5.20;;;12.00;99.90;;;;;;7895008;28;20255;-88
2023/03/21 19:33:00;;;;;;;10.33;5.10;;;12.00;99.90;;;;;;7889960;28;20538;-88
2023/03/21 19:36:46;;;;;;;9.17;5.50;;;12.00;99.90;;;;;;7907857;28;20218;-88
2023/03/21 19:40:37;;;;;;;9.60;5.67;;;12.00;99.90;;;;;;7903303;28;20268;-89
2023/03/21 19:44:22;;;;;;;8.30;5.27;;;12.00;99.90;;;;;;7881636;28;20226;-88
2023/03/21 19:48:08;;;;;;;7.37;5.30;;;12.00;99.90;;;;;;7890629;28;20184;-88